sensor_id;sensor_type;location;lat;lon;timestamp;pressure;altitude;pressure_sealevel;temperature;humidity
49393;BME280;35268;42.642;23.308;2023-04-10T00:01:42;94017.84;;;7.44;58.19
49393;BME280;35268;42.642;23.308;2023-04-10T00:04:08;94010.97;;;7.43;57.84
49393;BME280;35268;42.642;23.308;2023-04-10T00:06:33;94007.22;;;7.44;58.13
49393;BME280;35268;42.642;23.308;2023-04-10T00:08:59;94003.81;;;7.44;58.14
49393;BME280;35268;42.642;23.308;2023-04-10T00:11:25;94007.22;;;7.44;57.56
49393;BME280;35268;42.642;23.308;2023-04-10T00:13:52;94002.75;;;7.45;57.03
49393;BME280;35268;42.642;23.308;2023-04-10T00:16:17;93996.63;;;7.44;56.17
49393;BME280;35268;42.642;23.308;2023-04-10T00:18:43;93994.47;;;7.47;55.96
49393;BME280;35268;42.642;23.308;2023-04-10T00:21:08;93990.53;;;7.44;55.61
49393;BME280;35268;42.642;23.308;2023-04-10T00:23:34;93999.09;;;7.41;55.41
49393;BME280;35268;42.642;23.308;2023-04-10T00:26:00;94003.09;;;7.38;55.32
49393;BME280;35268;42.642;23.308;2023-04-10T00:28:26;93989.75;;;7.43;55.30
49393;BME280;35268;42.642;23.308;2023-04-10T00:30:51;93991.31;;;7.44;55.33
49393;BME280;35268;42.642;23.308;2023-04-10T00:33:17;93995.06;;;7.43;55.28
49393;BME280;35268;42.642;23.308;2023-04-10T00:35:42;93985.03;;;7.40;55.41
49393;BME280;35268;42.642;23.308;2023-04-10T00:38:10;93989.16;;;7.47;55.19
49393;BME280;35268;42.642;23.308;2023-04-10T00:40:36;93979.38;;;7.47;54.94
49393;BME280;35268;42.642;23.308;2023-04-10T00:43:01;93977.00;;;7.46;55.13
49393;BME280;35268;42.642;23.308;2023-04-10T00:45:27;93982.50;;;7.49;55.16
49393;BME280;35268;42.642;23.308;2023-04-10T00:47:53;93982.22;;;7.51;55.55
49393;BME280;35268;42.642;23.308;2023-04-10T00:50:20;93983.78;;;7.52;55.48
49393;BME280;35268;42.642;23.308;2023-04-10T00:52:47;93980.16;;;7.48;55.76
49393;BME280;35268;42.642;23.308;2023-04-10T00:55:13;93986.22;;;7.48;56.15
49393;BME280;35268;42.642;23.308;2023-04-10T00:57:44;93979.38;;;7.47;56.06
49393;BME280;35268;42.642;23.308;2023-04-10T01:00:14;93977.28;;;7.44;55.79
49393;BME280;35268;42.642;23.308;2023-04-10T01:02:40;93966.97;;;7.42;55.40
49393;BME280;35268;42.642;23.308;2023-04-10T01:05:07;93975.41;;;7.44;54.91
49393;BME280;35268;42.642;23.308;2023-04-10T01:15:26;93967.16;;;7.46;53.78
49393;BME280;35268;42.642;23.308;2023-04-10T01:18:13;93971.69;;;7.46;53.93
49393;BME280;35268;42.642;23.308;2023-04-10T01:20:41;93970.69;;;7.41;54.13
49393;BME280;35268;42.642;23.308;2023-04-10T01:26:05;93974.13;;;7.42;54.74
49393;BME280;35268;42.642;23.308;2023-04-10T01:33:59;93965.47;;;7.36;55.04
49393;BME280;35268;42.642;23.308;2023-04-10T01:36:31;93965.47;;;7.36;55.14
49393;BME280;35268;42.642;23.308;2023-04-10T01:38:59;93967.84;;;7.38;55.00
49393;BME280;35268;42.642;23.308;2023-04-10T01:41:25;93962.75;;;7.41;55.31
49393;BME280;35268;42.642;23.308;2023-04-10T01:43:52;93961.66;;;7.42;55.35
49393;BME280;35268;42.642;23.308;2023-04-10T01:46:20;93961.66;;;7.42;55.82
49393;BME280;35268;42.642;23.308;2023-04-10T01:48:48;93970.09;;;7.44;55.46
49393;BME280;35268;42.642;23.308;2023-04-10T01:51:14;93971.69;;;7.46;55.65
49393;BME280;35268;42.642;23.308;2023-04-10T01:53:42;93961.09;;;7.46;55.82
49393;BME280;35268;42.642;23.308;2023-04-10T01:56:08;93970.91;;;7.45;56.05
49393;BME280;35268;42.642;23.308;2023-04-10T01:58:34;93967.16;;;7.46;56.33
49393;BME280;35268;42.642;23.308;2023-04-10T02:01:00;93970.03;;;7.50;56.39
49393;BME280;35268;42.642;23.308;2023-04-10T02:03:26;93969.44;;;7.53;56.40
49393;BME280;35268;42.642;23.308;2023-04-10T02:08:42;93969.38;;;7.58;56.45
49393;BME280;35268;42.642;23.308;2023-04-10T02:11:20;93967.78;;;7.57;56.60
49393;BME280;35268;42.642;23.308;2023-04-10T02:13:49;93963.28;;;7.57;56.72
49393;BME280;35268;42.642;23.308;2023-04-10T02:16:18;93964.84;;;7.58;56.89
49393;BME280;35268;42.642;23.308;2023-04-10T02:18:47;93963.47;;;7.61;57.16
49393;BME280;35268;42.642;23.308;2023-04-10T02:21:14;93956.81;;;7.63;57.06
49393;BME280;35268;42.642;23.308;2023-04-10T02:23:40;93945.41;;;7.63;57.08
49393;BME280;35268;42.642;23.308;2023-04-10T02:26:08;93948.25;;;7.67;57.53
49393;BME280;35268;42.642;23.308;2023-04-10T02:28:36;93951.91;;;7.71;57.25
49393;BME280;35268;42.642;23.308;2023-04-10T02:31:06;93938.13;;;7.69;57.19
49393;BME280;35268;42.642;23.308;2023-04-10T02:33:31;93935.19;;;7.70;57.45
49393;BME280;35268;42.642;23.308;2023-04-10T02:35:57;93922.94;;;7.74;57.23
49393;BME280;35268;42.642;23.308;2023-04-10T02:38:24;93923.72;;;7.75;57.36
49393;BME280;35268;42.642;23.308;2023-04-10T02:40:49;93915.19;;;7.78;57.42
49393;BME280;35268;42.642;23.308;2023-04-10T02:43:15;93922.03;;;7.79;57.41
49393;BME280;35268;42.642;23.308;2023-04-10T02:45:40;93915.66;;;7.80;57.59
49393;BME280;35268;42.642;23.308;2023-04-10T02:48:06;93918.31;;;7.80;57.56
49393;BME280;35268;42.642;23.308;2023-04-10T02:50:31;93912.41;;;7.83;57.64
49393;BME280;35268;42.642;23.308;2023-04-10T02:52:57;93909.19;;;7.86;57.50
49393;BME280;35268;42.642;23.308;2023-04-10T02:55:22;93911.56;;;7.88;57.57
49393;BME280;35268;42.642;23.308;2023-04-10T02:57:47;93899.84;;;7.89;57.70
49393;BME280;35268;42.642;23.308;2023-04-10T03:00:13;93912.81;;;7.90;57.47
49393;BME280;35268;42.642;23.308;2023-04-10T03:02:39;93897.75;;;7.86;57.24
49393;BME280;35268;42.642;23.308;2023-04-10T03:05:04;93904.38;;;7.88;56.95
49393;BME280;35268;42.642;23.308;2023-04-10T03:07:30;93903.59;;;7.88;56.41
49393;BME280;35268;42.642;23.308;2023-04-10T03:09:56;93903.88;;;7.86;56.31
49393;BME280;35268;42.642;23.308;2023-04-10T03:12:22;93912.03;;;7.90;56.28
49393;BME280;35268;42.642;23.308;2023-04-10T03:14:47;93915.47;;;7.90;56.11
49393;BME280;35268;42.642;23.308;2023-04-10T03:17:13;93909.88;;;7.92;56.06
49393;BME280;35268;42.642;23.308;2023-04-10T03:19:38;93906.91;;;7.93;55.89
49393;BME280;35268;42.642;23.308;2023-04-10T03:22:03;93900.81;;;7.93;55.28
49393;BME280;35268;42.642;23.308;2023-04-10T03:24:29;93911.16;;;7.94;54.93
49393;BME280;35268;42.642;23.308;2023-04-10T03:26:54;93910.53;;;7.97;54.75
49393;BME280;35268;42.642;23.308;2023-04-10T03:29:21;93909.47;;;7.98;54.90
49393;BME280;35268;42.642;23.308;2023-04-10T03:31:46;93914.59;;;7.95;55.01
49393;BME280;35268;42.642;23.308;2023-04-10T03:34:12;93907.72;;;7.94;55.11
49393;BME280;35268;42.642;23.308;2023-04-10T03:36:37;93912.81;;;7.90;55.11
49393;BME280;35268;42.642;23.308;2023-04-10T03:39:03;93919.69;;;7.91;55.38
49393;BME280;35268;42.642;23.308;2023-04-10T03:41:28;93914.97;;;7.88;55.43
49393;BME280;35268;42.642;23.308;2023-04-10T03:43:54;93914.78;;;7.84;55.95
49393;BME280;35268;42.642;23.308;2023-04-10T03:46:19;93914.28;;;7.82;55.83
49393;BME280;35268;42.642;23.308;2023-04-10T03:48:46;93915.66;;;7.80;55.92
49393;BME280;35268;42.642;23.308;2023-04-10T03:51:13;93919.66;;;7.77;56.33
49393;BME280;35268;42.642;23.308;2023-04-10T03:53:39;93919.66;;;7.77;56.56
49393;BME280;35268;42.642;23.308;2023-04-10T03:56:05;93919.84;;;7.67;56.90
49393;BME280;35268;42.642;23.308;2023-04-10T03:58:31;93929.28;;;7.59;57.28
49393;BME280;35268;42.642;23.308;2023-04-10T04:00:56;93930.56;;;7.62;57.32
49393;BME280;35268;42.642;23.308;2023-04-10T04:03:23;93938.81;;;7.60;57.28
49393;BME280;35268;42.642;23.308;2023-04-10T04:05:49;93939.09;;;7.59;57.62
49393;BME280;35268;42.642;23.308;2023-04-10T04:08:15;93936.75;;;7.57;58.23
49393;BME280;35268;42.642;23.308;2023-04-10T04:10:40;93944.78;;;7.52;58.25
49393;BME280;35268;42.642;23.308;2023-04-10T04:13:06;93947.66;;;7.56;58.09
49393;BME280;35268;42.642;23.308;2023-04-10T04:15:31;93952.75;;;7.52;58.22
49393;BME280;35268;42.642;23.308;2023-04-10T04:17:56;93947.72;;;7.51;58.52
49393;BME280;35268;42.642;23.308;2023-04-10T04:20:22;93957.94;;;7.43;59.13
49393;BME280;35268;42.642;23.308;2023-04-10T04:22:47;93955.00;;;7.45;59.23
49393;BME280;35268;42.642;23.308;2023-04-10T04:25:13;93956.28;;;7.48;59.33
49393;BME280;35268;42.642;23.308;2023-04-10T04:27:38;93954.13;;;7.50;59.67
49393;BME280;35268;42.642;23.308;2023-04-10T04:30:04;93955.41;;;7.52;59.87
49393;BME280;35268;42.642;23.308;2023-04-10T04:32:30;93956.69;;;7.55;60.01
49393;BME280;35268;42.642;23.308;2023-04-10T04:34:56;93960.72;;;7.52;60.26
49393;BME280;35268;42.642;23.308;2023-04-10T04:37:21;93958.06;;;7.52;60.37
49393;BME280;35268;42.642;23.308;2023-04-10T04:39:47;93962.28;;;7.53;60.40
49393;BME280;35268;42.642;23.308;2023-04-10T04:42:12;93959.53;;;7.58;60.28
49393;BME280;35268;42.642;23.308;2023-04-10T04:44:37;93963.97;;;7.63;59.97
49393;BME280;35268;42.642;23.308;2023-04-10T04:47:03;93964.38;;;7.70;59.63
49393;BME280;35268;42.642;23.308;2023-04-10T04:49:28;93961.06;;;7.78;59.26
49393;BME280;35268;42.642;23.308;2023-04-10T04:51:54;93962.53;;;7.84;58.77
49393;BME280;35268;42.642;23.308;2023-04-10T04:54:19;93963.31;;;7.85;58.48
49393;BME280;35268;42.642;23.308;2023-04-10T04:56:45;93966.41;;;7.92;57.62
49393;BME280;35268;42.642;23.308;2023-04-10T04:59:10;93962.84;;;7.97;57.83
49393;BME280;35268;42.642;23.308;2023-04-10T05:01:36;93973.97;;;7.99;57.68
49393;BME280;35268;42.642;23.308;2023-04-10T05:04:02;93973.38;;;8.02;57.73
49393;BME280;35268;42.642;23.308;2023-04-10T05:06:27;93975.94;;;8.07;58.00
49393;BME280;35268;42.642;23.308;2023-04-10T05:08:53;93979.56;;;8.11;57.53
49393;BME280;35268;42.642;23.308;2023-04-10T05:11:18;93980.56;;;8.15;57.17
49393;BME280;35268;42.642;23.308;2023-04-10T05:13:44;93978.31;;;8.22;57.28
49393;BME280;35268;42.642;23.308;2023-04-10T05:16:10;93979.78;;;8.29;57.16
49393;BME280;35268;42.642;23.308;2023-04-10T05:18:35;93978.13;;;8.33;57.16
49393;BME280;35268;42.642;23.308;2023-04-10T05:21:01;93975.97;;;8.35;57.08
49393;BME280;35268;42.642;23.308;2023-04-10T05:23:26;93967.38;;;8.38;56.93
49393;BME280;35268;42.642;23.308;2023-04-10T05:25:52;93983.25;;;8.43;56.37
49393;BME280;35268;42.642;23.308;2023-04-10T05:28:17;93977.94;;;8.43;56.24
49393;BME280;35268;42.642;23.308;2023-04-10T05:30:42;93977.13;;;8.42;56.26
49393;BME280;35268;42.642;23.308;2023-04-10T05:33:08;93982.66;;;8.46;56.48
49393;BME280;35268;42.642;23.308;2023-04-10T05:35:33;93978.31;;;8.50;56.96
49393;BME280;35268;42.642;23.308;2023-04-10T05:37:59;93972.44;;;8.53;56.80
49393;BME280;35268;42.642;23.308;2023-04-10T05:40:25;93980.88;;;8.55;56.47
49393;BME280;35268;42.642;23.308;2023-04-10T05:42:50;93978.72;;;8.57;56.77
49393;BME280;35268;42.642;23.308;2023-04-10T05:45:16;93976.56;;;8.59;56.66
49393;BME280;35268;42.642;23.308;2023-04-10T05:47:42;93975.94;;;8.62;57.00
49393;BME280;35268;42.642;23.308;2023-04-10T05:50:08;93984.03;;;8.71;57.05
49393;BME280;35268;42.642;23.308;2023-04-10T05:52:34;93982.03;;;8.77;57.42
49393;BME280;35268;42.642;23.308;2023-04-10T05:54:59;93983.50;;;8.83;57.36
49393;BME280;35268;42.642;23.308;2023-04-10T05:57:25;93983.69;;;8.87;57.60
49393;BME280;35268;42.642;23.308;2023-04-10T05:59:50;93980.63;;;8.93;57.40
49393;BME280;35268;42.642;23.308;2023-04-10T06:02:16;93983.47;;;8.97;57.34
49393;BME280;35268;42.642;23.308;2023-04-10T06:04:41;93988.84;;;9.06;57.51
49393;BME280;35268;42.642;23.308;2023-04-10T06:07:07;93992.97;;;9.12;57.66
49393;BME280;35268;42.642;23.308;2023-04-10T06:09:32;93988.03;;;9.19;58.01
49393;BME280;35268;42.642;23.308;2023-04-10T06:11:58;93992.16;;;9.25;58.02
49393;BME280;35268;42.642;23.308;2023-04-10T06:14:23;93989.56;;;9.34;57.61
49393;BME280;35268;42.642;23.308;2023-04-10T06:16:48;93987.88;;;9.38;57.55
49393;BME280;35268;42.642;23.308;2023-04-10T06:19:14;93985.44;;;9.50;57.54
49393;BME280;35268;42.642;23.308;2023-04-10T06:21:39;93982.38;;;9.57;57.22
49393;BME280;35268;42.642;23.308;2023-04-10T06:24:05;93981.03;;;9.68;56.79
49393;BME280;35268;42.642;23.308;2023-04-10T06:26:30;93987.13;;;9.69;56.24
49393;BME280;35268;42.642;23.308;2023-04-10T06:28:56;93981.06;;;9.77;56.23
49393;BME280;35268;42.642;23.308;2023-04-10T06:31:21;93990.22;;;9.84;55.98
49393;BME280;35268;42.642;23.308;2023-04-10T06:33:48;93988.88;;;9.96;55.87
49393;BME280;35268;42.642;23.308;2023-04-10T06:36:13;93976.22;;;10.01;55.34
49393;BME280;35268;42.642;23.308;2023-04-10T06:38:39;93978.13;;;10.10;55.18
49393;BME280;35268;42.642;23.308;2023-04-10T06:41:05;93984.72;;;10.12;54.32
49393;BME280;35268;42.642;23.308;2023-04-10T06:43:33;93981.91;;;10.17;54.64
49393;BME280;35268;42.642;23.308;2023-04-10T06:45:58;93993.88;;;10.29;54.43
49393;BME280;35268;42.642;23.308;2023-04-10T06:48:24;93992.03;;;10.38;54.05
49393;BME280;35268;42.642;23.308;2023-04-10T06:50:49;93982.22;;;10.47;53.96
49393;BME280;35268;42.642;23.308;2023-04-10T06:53:15;93985.72;;;10.56;53.27
49393;BME280;35268;42.642;23.308;2023-04-10T06:55:40;93981.66;;;10.68;52.78
49393;BME280;35268;42.642;23.308;2023-04-10T06:58:06;93989.63;;;10.68;52.62
49393;BME280;35268;42.642;23.308;2023-04-10T07:00:31;93997.47;;;10.64;52.35
49393;BME280;35268;42.642;23.308;2023-04-10T07:02:57;93994.66;;;10.69;51.89
49393;BME280;35268;42.642;23.308;2023-04-10T07:05:22;94002.69;;;10.78;52.59
49393;BME280;35268;42.642;23.308;2023-04-10T07:07:48;94000.84;;;10.87;52.02
49393;BME280;35268;42.642;23.308;2023-04-10T07:10:14;94001.78;;;10.91;51.53
49393;BME280;35268;42.642;23.308;2023-04-10T07:12:40;94001.44;;;10.93;50.92
49393;BME280;35268;42.642;23.308;2023-04-10T07:15:06;93993.78;;;10.91;50.93
49393;BME280;35268;42.642;23.308;2023-04-10T07:17:32;93993.44;;;10.93;50.73
49393;BME280;35268;42.642;23.308;2023-04-10T07:19:58;93994.41;;;10.97;51.27
49393;BME280;35268;42.642;23.308;2023-04-10T07:22:23;93994.09;;;10.98;51.35
49393;BME280;35268;42.642;23.308;2023-04-10T07:24:49;93997.41;;;11.04;51.47
49393;BME280;35268;42.642;23.308;2023-04-10T07:27:14;93997.69;;;11.02;50.75
49393;BME280;35268;42.642;23.308;2023-04-10T07:29:41;93996.75;;;10.98;51.09
49393;BME280;35268;42.642;23.308;2023-04-10T07:32:17;94001.63;;;10.96;51.06
49393;BME280;35268;42.642;23.308;2023-04-10T07:34:45;94000.38;;;10.94;50.57
49393;BME280;35268;42.642;23.308;2023-04-10T07:37:13;94004.91;;;10.93;50.46
49393;BME280;35268;42.642;23.308;2023-04-10T07:39:38;94000.66;;;10.92;50.40
49393;BME280;35268;42.642;23.308;2023-04-10T07:42:04;93998.00;;;10.92;50.18
49393;BME280;35268;42.642;23.308;2023-04-10T07:44:30;94002.72;;;10.95;50.50
49393;BME280;35268;42.642;23.308;2023-04-10T07:46:58;94011.19;;;10.97;50.41
49393;BME280;35268;42.642;23.308;2023-04-10T07:49:24;94018.44;;;11.06;50.33
49393;BME280;35268;42.642;23.308;2023-04-10T07:51:49;94005.56;;;11.08;50.01
49393;BME280;35268;42.642;23.308;2023-04-10T07:54:15;94005.88;;;11.15;50.02
49393;BME280;35268;42.642;23.308;2023-04-10T07:56:40;94006.03;;;11.27;49.51
49393;BME280;35268;42.642;23.308;2023-04-10T07:59:06;94006.38;;;11.34;49.30
49393;BME280;35268;42.642;23.308;2023-04-10T08:01:31;94004.47;;;11.43;48.83
49393;BME280;35268;42.642;23.308;2023-04-10T08:03:57;94009.50;;;11.54;48.84
49393;BME280;35268;42.642;23.308;2023-04-10T08:06:22;94007.47;;;11.59;48.96
49393;BME280;35268;42.642;23.308;2023-04-10T08:08:48;94003.06;;;11.63;48.59
49393;BME280;35268;42.642;23.308;2023-04-10T08:11:28;93999.28;;;11.73;48.63
49393;BME280;35268;42.642;23.308;2023-04-10T08:13:56;94000.22;;;11.77;48.29
49393;BME280;35268;42.642;23.308;2023-04-10T08:16:24;94006.97;;;11.83;48.25
49393;BME280;35268;42.642;23.308;2023-04-10T08:18:53;93999.88;;;11.88;47.88
49393;BME280;35268;42.642;23.308;2023-04-10T08:21:23;94003.03;;;11.81;48.06
49393;BME280;35268;42.642;23.308;2023-04-10T08:23:50;94008.38;;;11.81;47.79
49393;BME280;35268;42.642;23.308;2023-04-10T08:26:16;94003.34;;;11.79;48.23
49393;BME280;35268;42.642;23.308;2023-04-10T08:28:41;94003.66;;;11.87;47.83
49393;BME280;35268;42.642;23.308;2023-04-10T08:31:11;93994.09;;;11.94;47.93
49393;BME280;35268;42.642;23.308;2023-04-10T08:33:37;93996.28;;;11.92;47.18
49393;BME280;35268;42.642;23.308;2023-04-10T08:36:03;94000.50;;;12.02;47.30
49393;BME280;35268;42.642;23.308;2023-04-10T08:38:29;94005.53;;;12.03;47.29
49393;BME280;35268;42.642;23.308;2023-04-10T08:40:56;93999.75;;;11.93;46.79
49393;BME280;35268;42.642;23.308;2023-04-10T08:43:21;93998.03;;;11.97;46.71
49393;BME280;35268;42.642;23.308;2023-04-10T08:45:47;94002.56;;;12.05;47.17
49393;BME280;35268;42.642;23.308;2023-04-10T08:48:13;94003.81;;;12.08;46.98
49393;BME280;35268;42.642;23.308;2023-04-10T08:50:41;93996.75;;;12.03;47.04
49393;BME280;35268;42.642;23.308;2023-04-10T08:53:16;93994.53;;;12.05;47.28
49393;BME280;35268;42.642;23.308;2023-04-10T08:55:45;93984.91;;;12.13;46.84
49393;BME280;35268;42.642;23.308;2023-04-10T08:58:11;93993.03;;;12.25;46.92
49393;BME280;35268;42.642;23.308;2023-04-10T09:00:38;93990.22;;;12.30;46.49
49393;BME280;35268;42.642;23.308;2023-04-10T09:03:06;93986.75;;;12.30;46.66
49393;BME280;35268;42.642;23.308;2023-04-10T09:05:34;93993.19;;;12.29;46.71
49393;BME280;35268;42.642;23.308;2023-04-10T09:07:59;93992.94;;;12.13;46.79
49393;BME280;35268;42.642;23.308;2023-04-10T09:10:25;93994.22;;;12.15;46.75
49393;BME280;35268;42.642;23.308;2023-04-10T09:12:51;93992.94;;;12.13;46.85
49393;BME280;35268;42.642;23.308;2023-04-10T09:15:16;93981.78;;;12.11;47.24
49393;BME280;35268;42.642;23.308;2023-04-10T09:18:01;93983.22;;;12.08;47.08
49393;BME280;35268;42.642;23.308;2023-04-10T09:20:31;93983.25;;;11.99;47.25
49393;BME280;35268;42.642;23.308;2023-04-10T09:22:56;93986.66;;;12.09;47.90
49393;BME280;35268;42.642;23.308;2023-04-10T09:28:02;93971.72;;;12.16;46.94
49393;BME280;35268;42.642;23.308;2023-04-10T09:30:41;93966.47;;;12.29;46.54
49393;BME280;35268;42.642;23.308;2023-04-10T09:33:23;93971.47;;;12.39;46.56
49393;BME280;35268;42.642;23.308;2023-04-10T09:35:52;93971.31;;;12.44;46.33
49393;BME280;35268;42.642;23.308;2023-04-10T09:38:20;93977.22;;;12.58;46.38
49393;BME280;35268;42.642;23.308;2023-04-10T09:40:46;93968.34;;;12.67;45.54
49393;BME280;35268;42.642;23.308;2023-04-10T09:43:20;93973.41;;;12.59;44.78
49393;BME280;35268;42.642;23.308;2023-04-10T09:45:50;93964.34;;;12.52;45.13
49393;BME280;35268;42.642;23.308;2023-04-10T09:48:16;93967.59;;;12.57;45.49
49393;BME280;35268;42.642;23.308;2023-04-10T09:50:42;93969.03;;;12.55;46.02
49393;BME280;35268;42.642;23.308;2023-04-10T09:53:10;93971.31;;;12.44;46.25
49393;BME280;35268;42.642;23.308;2023-04-10T09:55:36;93967.19;;;12.47;46.41
49393;BME280;35268;42.642;23.308;2023-04-10T09:58:03;93964.34;;;12.52;46.72
49393;BME280;35268;42.642;23.308;2023-04-10T10:00:29;93972.22;;;12.48;46.07
49393;BME280;35268;42.642;23.308;2023-04-10T10:02:58;93972.53;;;12.47;45.49
49393;BME280;35268;42.642;23.308;2023-04-10T10:05:23;93957.47;;;12.42;45.46
49393;BME280;35268;42.642;23.308;2023-04-10T10:07:55;93967.25;;;12.38;46.19
49393;BME280;35268;42.642;23.308;2023-04-10T10:10:21;93951.94;;;12.47;45.89
49393;BME280;35268;42.642;23.308;2023-04-10T10:12:59;93953.13;;;12.58;45.56
49393;BME280;35268;42.642;23.308;2023-04-10T10:15:35;93943.63;;;12.70;45.35
49393;BME280;35268;42.642;23.308;2023-04-10T10:18:23;93951.28;;;12.80;45.21
49393;BME280;35268;42.642;23.308;2023-04-10T10:20:51;93944.44;;;12.91;45.14
49393;BME280;35268;42.642;23.308;2023-04-10T10:23:18;93934.44;;;13.00;44.73
49393;BME280;35268;42.642;23.308;2023-04-10T10:25:44;93935.25;;;13.01;43.44
49393;BME280;35268;42.642;23.308;2023-04-10T10:28:12;93937.88;;;13.10;43.55
49393;BME280;35268;42.642;23.308;2023-04-10T10:30:37;93936.41;;;13.12;43.94
49393;BME280;35268;42.642;23.308;2023-04-10T10:33:05;93933.03;;;13.24;43.49
49393;BME280;35268;42.642;23.308;2023-04-10T10:35:33;93934.69;;;13.37;42.21
49393;BME280;35268;42.642;23.308;2023-04-10T10:38:01;93932.38;;;13.48;42.10
49393;BME280;35268;42.642;23.308;2023-04-10T10:40:42;93915.31;;;13.53;41.65
49393;BME280;35268;42.642;23.308;2023-04-10T10:43:34;93919.13;;;13.52;40.94
49393;BME280;35268;42.642;23.308;2023-04-10T10:46:16;93911.28;;;13.47;40.70
49393;BME280;35268;42.642;23.308;2023-04-10T10:48:57;93909.78;;;13.58;40.75
49393;BME280;35268;42.642;23.308;2023-04-10T10:51:23;93901.09;;;13.73;40.73
49393;BME280;35268;42.642;23.308;2023-04-10T10:56:51;93898.13;;;13.87;39.80
49393;BME280;35268;42.642;23.308;2023-04-10T10:59:17;93898.88;;;13.88;39.76
49393;BME280;35268;42.642;23.308;2023-04-10T11:02:20;93893.31;;;13.80;40.40
49393;BME280;35268;42.642;23.308;2023-04-10T11:04:47;93891.22;;;13.86;40.51
49393;BME280;35268;42.642;23.308;2023-04-10T11:07:14;93886.63;;;13.99;40.45
49393;BME280;35268;42.642;23.308;2023-04-10T11:09:49;93884.19;;;14.18;40.71
49393;BME280;35268;42.642;23.308;2023-04-10T11:12:18;93877.38;;;14.45;39.27
49393;BME280;35268;42.642;23.308;2023-04-10T11:14:44;93878.59;;;14.73;39.02
49393;BME280;35268;42.642;23.308;2023-04-10T11:17:45;93877.66;;;14.93;38.27
49393;BME280;35268;42.642;23.308;2023-04-10T11:20:11;93873.75;;;14.91;36.81
49393;BME280;35268;42.642;23.308;2023-04-10T11:23:06;93861.81;;;14.88;38.22
49393;BME280;35268;42.642;23.308;2023-04-10T11:25:51;93867.88;;;14.73;38.17
49393;BME280;35268;42.642;23.308;2023-04-10T11:28:36;93862.97;;;14.62;38.18
49393;BME280;35268;42.642;23.308;2023-04-10T11:31:21;93863.28;;;14.61;37.98
49393;BME280;35268;42.642;23.308;2023-04-10T11:34:06;93859.19;;;14.63;37.71
49393;BME280;35268;42.642;23.308;2023-04-10T11:36:33;93863.06;;;14.66;37.98
49393;BME280;35268;42.642;23.308;2023-04-10T11:39:00;93859.94;;;14.52;38.19
49393;BME280;35268;42.642;23.308;2023-04-10T11:41:34;93871.66;;;14.10;40.13
49393;BME280;35268;42.642;23.308;2023-04-10T11:44:03;93861.03;;;13.77;41.71
49393;BME280;35268;42.642;23.308;2023-04-10T11:46:29;93866.34;;;13.52;43.40
49393;BME280;35268;42.642;23.308;2023-04-10T11:48:58;93859.22;;;13.23;44.71
49393;BME280;35268;42.642;23.308;2023-04-10T11:51:24;93861.63;;;13.16;44.86
49393;BME280;35268;42.642;23.308;2023-04-10T11:54:06;93866.25;;;13.07;45.70
49393;BME280;35268;42.642;23.308;2023-04-10T11:56:31;93863.88;;;13.26;44.81
49393;BME280;35268;42.642;23.308;2023-04-10T11:58:57;93852.41;;;13.25;43.10
49393;BME280;35268;42.642;23.308;2023-04-10T12:01:23;93851.72;;;13.50;42.25
49393;BME280;35268;42.642;23.308;2023-04-10T12:03:48;93849.97;;;13.66;41.92
49393;BME280;35268;42.642;23.308;2023-04-10T12:06:14;93849.97;;;13.54;40.86
49393;BME280;35268;42.642;23.308;2023-04-10T12:08:43;93844.81;;;13.49;42.40
49393;BME280;35268;42.642;23.308;2023-04-10T12:11:25;93852.66;;;13.66;41.53
49393;BME280;35268;42.642;23.308;2023-04-10T12:13:53;93845.28;;;13.63;40.24
49393;BME280;35268;42.642;23.308;2023-04-10T12:16:21;93845.13;;;13.47;40.84
49393;BME280;35268;42.642;23.308;2023-04-10T12:18:48;93852.41;;;13.59;40.95
49393;BME280;35268;42.642;23.308;2023-04-10T12:21:13;93853.88;;;13.69;40.49
49393;BME280;35268;42.642;23.308;2023-04-10T12:23:39;93857.59;;;13.76;41.22
49393;BME280;35268;42.642;23.308;2023-04-10T12:26:13;93858.34;;;13.64;42.01
49393;BME280;35268;42.642;23.308;2023-04-10T12:28:41;93866.50;;;13.35;42.98
49393;BME280;35268;42.642;23.308;2023-04-10T12:31:07;93886.69;;;12.90;43.30
49393;BME280;35268;42.642;23.308;2023-04-10T12:33:33;93875.53;;;12.16;45.25
49393;BME280;35268;42.642;23.308;2023-04-10T12:35:59;93885.56;;;11.72;47.35
49393;BME280;35268;42.642;23.308;2023-04-10T12:38:53;93886.88;;;11.57;49.07
49393;BME280;35268;42.642;23.308;2023-04-10T12:41:28;93891.63;;;11.34;51.55
49393;BME280;35268;42.642;23.308;2023-04-10T12:44:09;93881.16;;;11.12;52.67
49393;BME280;35268;42.642;23.308;2023-04-10T12:46:35;93887.41;;;11.07;52.35
49393;BME280;35268;42.642;23.308;2023-04-10T12:51:48;93869.69;;;11.02;52.47
49393;BME280;35268;42.642;23.308;2023-04-10T12:54:34;93875.50;;;10.96;53.13
49393;BME280;35268;42.642;23.308;2023-04-10T12:57:01;93871.09;;;11.09;53.05
49393;BME280;35268;42.642;23.308;2023-04-10T12:59:29;93875.34;;;11.10;51.80
49393;BME280;35268;42.642;23.308;2023-04-10T13:01:54;93873.75;;;11.26;50.69
49393;BME280;35268;42.642;23.308;2023-04-10T13:04:20;93869.50;;;11.25;49.60
49393;BME280;35268;42.642;23.308;2023-04-10T13:06:47;93871.84;;;11.35;47.96
49393;BME280;35268;42.642;23.308;2023-04-10T13:09:13;93866.63;;;11.48;47.33
49393;BME280;35268;42.642;23.308;2023-04-10T13:11:40;93852.81;;;11.54;48.08
49393;BME280;35268;42.642;23.308;2023-04-10T13:14:06;93849.44;;;11.66;47.69
49393;BME280;35268;42.642;23.308;2023-04-10T13:16:32;93851.28;;;11.92;47.17
49393;BME280;35268;42.642;23.308;2023-04-10T13:18:57;93850.91;;;12.02;47.24
49393;BME280;35268;42.642;23.308;2023-04-10T13:21:23;93843.31;;;12.42;46.63
49393;BME280;35268;42.642;23.308;2023-04-10T13:23:53;93841.63;;;13.01;45.73
49393;BME280;35268;42.642;23.308;2023-04-10T13:26:19;93846.22;;;13.34;43.80